Weather reports worldwide

Advertisment
Katesbridge, United Kingdom (99014): temperature & dewpoint: 18.01.2020 02:00:00 - 24.01.2020 02:00:00 (GMT)Katesbridge, United Kingdom (99014): wind speed: 18.01.2020 02:00:00 - 24.01.2020 02:00:00 (GMT)Katesbridge, United Kingdom (99014): wind direction: 18.01.2020 02:00:00 - 24.01.2020 02:00:00 (GMT)Katesbridge, United Kingdom (99014): sunshine duration: 18.01.2020 02:00:00 - 24.01.2020 02:00:00 (GMT)Katesbridge, United Kingdom (99014): precipitation: 18.01.2020 02:00:00 - 24.01.2020 02:00:00 (GMT)
Date & Time tt [°C] td [°C] ff [km/h] ff [kn] dd sd [min] rr [mm]
24.01.2020 02:00:00 5,5 4,8 5 3 W 0 0,0
24.01.2020 01:00:00 6,6 5,7 8 4 W 0 0,0
24.01.2020 00:00:00 6,1 5,5 4 2 W - 0,0
23.01.2020 23:00:00 6,3 5,6 5 3 W 0 0,0
23.01.2020 22:00:00 6,2 5,5 8 4 W 0 0,0
23.01.2020 21:00:00 6,2 5,5 9 5 SW 0 0,0
23.01.2020 20:00:00 6,5 5,8 5 3 W 0 0,0
23.01.2020 19:00:00 6,5 5,6 8 4 WSW 0 0,0
23.01.2020 18:00:00 7,0 6,0 4 2 W 0 0,0
23.01.2020 17:00:00 7,4 6,2 5 3 W 0 0,0
23.01.2020 16:00:00 7,8 6,3 9 5 W 6 0,0
23.01.2020 15:00:00 8,0 6,3 9 5 WNW 0 0,0
23.01.2020 14:00:00 7,8 6,3 8 4 WNW 0 0,0
23.01.2020 13:00:00 7,3 6,7 9 5 W 0 0,0
23.01.2020 12:00:00 5,9 5,9 0 0 N 0 0,0
23.01.2020 11:00:00 4,1 4,1 2 1 S 0 0,0
23.01.2020 10:00:00 3,0 3,0 0 0 N 0 0,0
23.01.2020 09:00:00 1,8 1,7 0 0 N 0 0,0
23.01.2020 08:00:00 2,7 2,6 2 1 SW 0 0,0
23.01.2020 07:00:00 3,9 3,8 2 1 W 0 0,0
23.01.2020 06:00:00 4,8 4,8 2 1 SSE 0 0,0
23.01.2020 05:00:00 4,3 4,2 2 1 WSW 0 0,2
23.01.2020 04:00:00 4,4 4,3 4 2 W 0 0,0
23.01.2020 03:00:00 1,0 0,5 2 1 NW 0 0,0
23.01.2020 02:00:00 3,0 2,6 2 1 NNE 0 0,0
23.01.2020 01:00:00 5,4 5,1 2 1 SE 0 0,0
23.01.2020 00:00:00 5,9 5,7 0 0 N - 0,0
22.01.2020 23:00:00 5,7 5,4 0 0 N 0 0,0
22.01.2020 22:00:00 5,8 5,5 2 1 ENE 0 0,0
22.01.2020 21:00:00 6,3 6,1 2 1 NE 0 0,0
22.01.2020 20:00:00 6,6 6,4 0 0 N 0 0,0
22.01.2020 19:00:00 6,0 5,8 4 2 NE 0 0,0
22.01.2020 18:00:00 4,7 3,9 2 1 NNE 0 0,0
22.01.2020 17:00:00 6,3 4,6 0 0 N 0 0,0
22.01.2020 16:00:00 10,1 7,5 2 1 NW 54 0,0
22.01.2020 15:00:00 11,5 8,4 2 1 SW 54 0,0
22.01.2020 14:00:00 10,6 8,8 2 1 WNW 24 0,0
22.01.2020 13:00:00 9,3 8,4 0 0 N 0 0,0
22.01.2020 12:00:00 8,5 8,2 0 0 N 0 0,0
22.01.2020 11:00:00 7,8 7,6 2 1 SW 0 0,0
22.01.2020 10:00:00 7,6 7,4 4 2 NNE 0 0,0
22.01.2020 09:00:00 6,9 6,6 2 1 E 0 0,0
22.01.2020 08:00:00 7,2 6,8 2 1 WSW 0 0,0
22.01.2020 07:00:00 7,6 7,2 0 0 N 0 0,0
22.01.2020 06:00:00 7,8 7,4 2 1 SSW 0 0,0
22.01.2020 05:00:00 7,9 7,5 2 1 WSW 0 0,0
22.01.2020 04:00:00 8,1 7,6 0 0 N 0 0,0
22.01.2020 03:00:00 8,3 7,8 2 1 WNW 0 0,0
22.01.2020 02:00:00 8,4 8,0 4 2 NW 0 0,0
22.01.2020 01:00:00 8,5 8,1 5 3 WSW 0 0,0
22.01.2020 00:00:00 8,5 8,1 4 2 WSW - 0,0
21.01.2020 23:00:00 8,5 8,0 4 2 W 0 0,0
21.01.2020 22:00:00 8,7 8,2 2 1 W 0 0,0
21.01.2020 21:00:00 8,8 8,2 8 4 WNW 0 0,0
21.01.2020 20:00:00 8,7 8,1 5 3 W 0 0,0
21.01.2020 19:00:00 8,7 8,1 5 3 W 0 0,0
21.01.2020 18:00:00 8,7 8,1 5 3 W 0 0,0
21.01.2020 17:00:00 8,8 8,1 5 3 W 0 0,0
21.01.2020 16:00:00 9,2 8,1 8 4 WNW 0 0,0
21.01.2020 15:00:00 9,5 8,1 9 5 W 0 0,0
21.01.2020 14:00:00 9,2 7,8 8 4 W 0 0,0
21.01.2020 13:00:00 9,0 7,7 8 4 WSW 0 0,0
21.01.2020 12:00:00 8,5 7,4 8 4 SW 0 0,0
21.01.2020 11:00:00 7,8 7,1 9 5 W 0 0,0
21.01.2020 10:00:00 7,2 6,4 2 1 S 0 0,0
21.01.2020 09:00:00 7,1 6,0 8 4 SW 0 0,0
21.01.2020 08:00:00 6,3 5,6 5 3 W 0 0,0
21.01.2020 07:00:00 5,6 4,5 2 1 E 0 0,0
21.01.2020 06:00:00 5,8 4,5 2 1 SSE 0 0,0
21.01.2020 05:00:00 5,9 4,1 2 1 ESE 0 0,0
21.01.2020 04:00:00 6,4 4,4 4 2 SW 0 0,0
21.01.2020 03:00:00 6,0 4,4 4 2 W 0 0,0
21.01.2020 02:00:00 5,2 3,7 2 1 W 0 0,0
21.01.2020 01:00:00 5,3 3,7 2 1 W 0 0,0
21.01.2020 00:00:00 4,7 2,8 2 1 W - 0,0
20.01.2020 23:00:00 6,0 4,0 8 4 WSW 0 0,0
20.01.2020 22:00:00 5,9 4,0 8 4 WSW 0 0,0
20.01.2020 21:00:00 6,0 4,0 8 4 WSW 0 0,0
20.01.2020 20:00:00 6,0 4,1 8 4 WSW 0 0,0
20.01.2020 19:00:00 5,7 4,0 5 3 WSW 0 0,0
20.01.2020 18:00:00 5,6 3,9 8 4 SW 0 0,0
20.01.2020 17:00:00 5,4 3,7 5 3 WSW 0 0,0
20.01.2020 16:00:00 5,6 3,7 8 4 WSW 0 0,0
20.01.2020 15:00:00 5,6 3,3 13 7 WSW 42 0,0
20.01.2020 14:00:00 6,5 3,7 15 8 SW 48 0,0
20.01.2020 13:00:00 7,3 4,1 13 7 WSW 60 0,0
20.01.2020 12:00:00 6,5 3,7 11 6 WSW 60 0,0
20.01.2020 11:00:00 5,4 3,4 4 2 S 60 0,0
20.01.2020 10:00:00 2,7 1,9 5 3 W 24 0,0
20.01.2020 09:00:00 1,1 1,0 8 4 WSW 0 0,0
20.01.2020 08:00:00 0,1 0,0 2 1 SSW 0 0,0
20.01.2020 07:00:00 -3,2 -3,6 5 3 W 0 0,0
20.01.2020 06:00:00 -3,2 -3,7 2 1 W 0 0,0
20.01.2020 05:00:00 -3,0 -3,5 2 1 SW 0 0,0
20.01.2020 04:00:00 -2,3 -2,9 2 1 NE 0 0,0
20.01.2020 03:00:00 -2,0 -2,9 2 1 WNW 0 0,0
20.01.2020 02:00:00 -0,6 -1,6 2 1 NE 0 0,0
20.01.2020 01:00:00 0,8 -0,4 2 1 W 0 0,0
20.01.2020 00:00:00 2,2 0,5 2 1 SW - 0,0
19.01.2020 23:00:00 2,7 1,0 5 3 WSW 0 0,0
19.01.2020 22:00:00 3,4 1,0 9 5 WSW 0 0,0
19.01.2020 21:00:00 3,7 1,2 11 6 SW 0 0,0
19.01.2020 20:00:00 3,7 0,3 8 4 WSW 0 0,0
19.01.2020 19:00:00 3,5 0,0 8 4 WSW 0 0,0
19.01.2020 18:00:00 3,2 -0,2 2 1 W 0 0,0
19.01.2020 17:00:00 4,1 0,1 9 5 SW 0 0,0
19.01.2020 16:00:00 4,2 -1,6 4 2 SW 24 0,0
19.01.2020 15:00:00 4,5 -0,9 5 3 S 0 0,0
19.01.2020 14:00:00 5,3 0,4 4 2 SSW 36 0,0
19.01.2020 13:00:00 4,0 1,0 4 2 SW 6 0,0
19.01.2020 12:00:00 2,1 1,5 2 1 W 0 0,0
19.01.2020 11:00:00 0,2 0,1 2 1 E 0 0,0
19.01.2020 10:00:00 -1,5 -1,7 4 2 NE 12 0,0
19.01.2020 09:00:00 -4,0 -4,4 2 1 NE 0 0,0
19.01.2020 08:00:00 -5,9 -6,6 2 1 E 0 0,0
19.01.2020 07:00:00 -5,5 -6,0 2 1 NE 0 0,0
19.01.2020 06:00:00 -5,9 -6,6 0 0 N 0 0,0
19.01.2020 05:00:00 -5,4 -5,9 0 0 N 0 0,0
19.01.2020 04:00:00 -5,7 -6,4 0 0 N 0 0,0
19.01.2020 03:00:00 -5,3 -5,9 2 1 ESE 0 0,0
19.01.2020 02:00:00 -5,3 -5,9 2 1 NE 0 0,0
19.01.2020 01:00:00 -4,6 -5,1 2 1 N 0 0,0
19.01.2020 00:00:00 -3,4 -3,7 2 1 ESE - 0,0
18.01.2020 23:00:00 -4,1 -4,6 2 1 NNE 0 0,0
18.01.2020 22:00:00 -2,1 -2,4 2 1 ESE 0 0,0
18.01.2020 21:00:00 -2,9 -3,5 4 2 NE 0 0,0
18.01.2020 20:00:00 -1,3 -1,8 4 2 E 0 0,0
18.01.2020 19:00:00 -1,1 -1,8 2 1 NNW 0 0,0
18.01.2020 18:00:00 -0,5 -1,7 2 1 NW 0 0,0
18.01.2020 17:00:00 1,8 -0,1 2 1 NNW 0 0,0
18.01.2020 16:00:00 3,6 0,5 4 2 NNW 6 0,0
18.01.2020 15:00:00 5,4 1,4 5 3 NNW 54 0,0
18.01.2020 14:00:00 4,4 1,8 2 1 ESE 36 0,2
18.01.2020 13:00:00 3,7 2,0 0 0 N 24 0,0
18.01.2020 12:00:00 1,5 0,5 4 2 E 18 0,0
18.01.2020 11:00:00 1,0 0,5 2 1 S 60 0,0
18.01.2020 10:00:00 -2,2 -2,4 2 1 ENE 36 0,0
18.01.2020 09:00:00 -5,5 -6,1 4 2 NE 0 0,0
18.01.2020 08:00:00 -4,9 -5,5 0 0 N 0 0,0
18.01.2020 07:00:00 -4,6 -5,2 2 1 NE 0 0,0
18.01.2020 06:00:00 -3,9 -4,4 2 1 NE 0 0,0
18.01.2020 05:00:00 -3,5 -4,0 2 1 N 0 0,0
18.01.2020 04:00:00 -3,4 -3,9 2 1 E 0 0,0
18.01.2020 03:00:00 -3,8 -4,4 2 1 NE 0 0,0
18.01.2020 02:00:00 -3,0 -3,6 2 1 N 0 0,0

tt = temperature
td = dewpoint
ff = wind speed
dd = wind direction
sd = sunshine duration
rr = precipitation

Next stations